createdAt,value
2022-12-14T00:02:11.028Z,19.65
2022-12-14T00:04:38.410Z,18.10
2022-12-14T00:07:05.856Z,19.50
2022-12-14T00:09:33.147Z,17.83
2022-12-14T00:12:00.497Z,20.27
2022-12-14T00:14:27.823Z,18.90
2022-12-14T00:16:55.103Z,18.45
2022-12-14T00:19:22.442Z,17.63
2022-12-14T00:21:49.738Z,19.50
2022-12-14T00:24:17.079Z,19.50
2022-12-14T00:26:44.716Z,20.85
2022-12-14T00:29:12.347Z,20.52
2022-12-14T00:31:39.887Z,18.30
2022-12-14T00:34:07.277Z,19.23
2022-12-14T00:36:36.457Z,19.77
2022-12-14T00:39:04.174Z,21.33
2022-12-14T00:41:31.417Z,19.40
2022-12-14T00:43:58.932Z,19.77
2022-12-14T00:46:26.296Z,19.13
2022-12-14T00:48:53.665Z,20.88
2022-12-14T00:51:22.454Z,17.60
2022-12-14T00:53:49.785Z,19.98
2022-12-14T00:56:17.301Z,20.67
2022-12-14T00:58:44.629Z,19.40
2022-12-14T01:01:15.671Z,20.42
2022-12-14T01:03:43.153Z,18.67
2022-12-14T01:06:15.302Z,18.77
2022-12-14T01:08:42.947Z,20.65
2022-12-14T01:11:10.895Z,20.13
2022-12-14T01:13:39.056Z,19.15
2022-12-14T01:16:12.390Z,19.23
2022-12-14T01:18:41.079Z,18.02
2022-12-14T01:21:10.346Z,19.20
2022-12-14T01:23:38.365Z,18.38
2022-12-14T01:26:05.730Z,19.60
2022-12-14T01:28:35.041Z,19.77
2022-12-14T01:31:07.453Z,20.42
2022-12-14T01:33:34.805Z,17.90
2022-12-14T01:36:09.968Z,19.10
2022-12-14T01:38:37.414Z,17.45
2022-12-14T01:41:05.505Z,20.50
2022-12-14T01:43:50.069Z,17.63
2022-12-14T01:46:24.611Z,18.83
2022-12-14T01:48:54.251Z,17.98
2022-12-14T01:51:21.496Z,18.35
2022-12-14T01:53:49.031Z,18.27
2022-12-14T01:56:16.939Z,17.95
2022-12-14T01:58:44.378Z,18.33
2022-12-14T02:01:11.821Z,18.75
2022-12-14T02:03:45.606Z,19.17
2022-12-14T02:06:17.437Z,18.45
2022-12-14T02:08:48.797Z,19.13
2022-12-14T02:11:20.119Z,20.35
2022-12-14T02:13:48.852Z,19.90
2022-12-14T02:16:16.318Z,17.27
2022-12-14T02:18:43.605Z,18.65
2022-12-14T02:21:19.145Z,18.25
2022-12-14T02:24:10.928Z,17.75
2022-12-14T02:27:10.090Z,19.17
2022-12-14T02:29:48.047Z,17.55
2022-12-14T02:32:30.192Z,17.80
2022-12-14T02:35:18.064Z,18.15
2022-12-14T02:38:02.978Z,19.10
2022-12-14T02:40:39.967Z,18.05
2022-12-14T02:43:22.468Z,18.50
2022-12-14T02:46:03.462Z,18.42
2022-12-14T02:48:39.615Z,19.48
2022-12-14T02:51:29.573Z,18.50
2022-12-14T02:54:21.935Z,17.58
2022-12-14T02:56:54.087Z,17.75
2022-12-14T02:59:22.296Z,18.63
2022-12-14T03:01:51.218Z,18.38
2022-12-14T03:04:19.614Z,19.35
2022-12-14T03:07:00.879Z,19.58
2022-12-14T03:09:30.405Z,17.70
2022-12-14T03:12:11.972Z,17.60
2022-12-14T03:14:48.131Z,17.70
2022-12-14T03:17:19.928Z,19.85
2022-12-14T03:19:57.842Z,18.10
2022-12-14T03:22:50.971Z,18.35
2022-12-14T03:25:24.023Z,18.75
2022-12-14T03:28:20.548Z,18.48
2022-12-14T03:31:01.142Z,18.80
2022-12-14T03:33:31.353Z,18.70
2022-12-14T03:36:14.053Z,18.05
2022-12-14T03:38:48.926Z,17.27
2022-12-14T03:41:31.415Z,18.48
2022-12-14T03:44:28.638Z,19.90
2022-12-14T03:47:16.515Z,17.38
2022-12-14T03:50:13.615Z,18.52
2022-12-14T03:52:55.667Z,17.70
2022-12-14T03:55:30.294Z,17.92
2022-12-14T03:58:05.759Z,17.58
2022-12-14T04:00:57.332Z,18.05
2022-12-14T04:03:24.772Z,17.45
2022-12-14T04:06:00.862Z,18.92
2022-12-14T04:08:50.742Z,20.30
2022-12-14T04:11:38.638Z,19.30
2022-12-14T04:14:42.194Z,17.52
2022-12-14T04:17:33.108Z,18.23
2022-12-14T04:20:09.069Z,16.08
2022-12-14T04:22:41.857Z,17.38
2022-12-14T04:25:37.884Z,18.48
2022-12-14T04:28:31.822Z,17.15
2022-12-14T04:31:03.031Z,18.10
2022-12-14T04:33:47.425Z,17.73
2022-12-14T04:36:30.067Z,17.02
2022-12-14T04:39:08.655Z,16.95
2022-12-14T04:41:38.156Z,19.23
2022-12-14T04:44:12.256Z,18.90
2022-12-14T04:46:41.110Z,18.23
2022-12-14T04:49:23.448Z,17.60
2022-12-14T04:52:05.018Z,15.57
2022-12-14T04:54:44.998Z,17.38
2022-12-14T04:57:36.673Z,17.77
2022-12-14T05:00:05.672Z,17.33
2022-12-14T05:02:33.085Z,16.40
2022-12-14T05:05:23.961Z,18.60
2022-12-14T05:08:22.619Z,18.02
2022-12-14T05:11:52.087Z,18.42
2022-12-14T05:14:17.974Z,18.00
2022-12-14T05:16:45.614Z,17.23
2022-12-14T05:19:28.678Z,16.48
2022-12-14T05:21:56.113Z,16.50
2022-12-14T05:24:23.140Z,16.45
2022-12-14T05:26:50.397Z,17.67
2022-12-14T05:29:17.855Z,17.13
2022-12-14T05:31:45.459Z,18.70
2022-12-14T05:34:16.831Z,19.98
2022-12-14T05:36:44.069Z,17.80
2022-12-14T05:39:11.322Z,18.33
2022-12-14T05:41:38.579Z,17.08
2022-12-14T05:44:05.566Z,16.55
2022-12-14T05:46:41.582Z,15.45
2022-12-14T05:49:09.324Z,16.35
2022-12-14T05:51:36.577Z,16.48
2022-12-14T05:54:04.008Z,14.73
2022-12-14T05:56:31.417Z,15.93
2022-12-14T05:58:58.762Z,14.85
2022-12-14T06:01:26.230Z,14.60
2022-12-14T06:03:53.967Z,14.98
2022-12-14T06:06:21.451Z,15.13
2022-12-14T06:08:48.973Z,14.85
2022-12-14T06:11:18.935Z,13.70
2022-12-14T06:13:47.885Z,14.77
2022-12-14T06:16:20.826Z,14.60
2022-12-14T06:18:59.255Z,14.23
2022-12-14T06:21:29.792Z,14.23
2022-12-14T06:23:57.999Z,14.07
2022-12-14T06:26:26.205Z,14.57
2022-12-14T06:28:53.553Z,14.38
2022-12-14T06:31:23.189Z,14.60
2022-12-14T06:33:51.388Z,14.15
2022-12-14T06:36:31.024Z,14.68
2022-12-14T06:39:01.476Z,13.93
2022-12-14T06:41:28.841Z,13.77
2022-12-14T06:43:57.136Z,13.57
2022-12-14T06:46:25.018Z,12.98
2022-12-14T06:48:54.380Z,13.05
2022-12-14T06:51:26.041Z,11.20
2022-12-14T06:53:54.524Z,15.05
2022-12-14T06:56:23.063Z,11.05
2022-12-14T06:58:50.399Z,12.93
2022-12-14T07:01:22.600Z,11.63
2022-12-14T07:05:08.231Z,12.45
2022-12-14T07:07:39.684Z,12.02
2022-12-14T07:10:08.414Z,11.55
2022-12-14T07:12:35.961Z,13.10
2022-12-14T07:15:03.398Z,11.95
2022-12-14T07:17:30.683Z,12.60
2022-12-14T07:19:57.997Z,12.32
2022-12-14T07:22:25.892Z,11.43
2022-12-14T07:24:56.386Z,10.75
2022-12-14T07:27:33.755Z,10.45
2022-12-14T07:30:01.145Z,12.13
2022-12-14T07:32:28.543Z,11.38
2022-12-14T07:34:55.945Z,11.18
2022-12-14T07:37:24.286Z,12.75
2022-12-14T07:39:51.666Z,11.48
2022-12-14T07:42:19.050Z,11.27
2022-12-14T07:44:48.016Z,10.55
2022-12-14T07:47:16.798Z,11.27
2022-12-14T07:49:44.459Z,8.48
2022-12-14T07:52:11.883Z,9.32
2022-12-14T07:54:39.355Z,9.82
2022-12-14T07:57:06.741Z,12.00
2022-12-14T07:59:34.391Z,10.90
2022-12-14T08:02:01.945Z,10.45
2022-12-14T08:04:29.584Z,11.48
2022-12-14T08:06:59.736Z,14.93
2022-12-14T08:11:53.818Z,17.35
2022-12-14T08:14:21.177Z,18.02
2022-12-14T08:16:49.560Z,17.23
2022-12-14T08:19:17.604Z,21.98
2022-12-14T08:21:45.864Z,21.63
2022-12-14T08:24:14.248Z,19.00
2022-12-14T08:26:41.667Z,14.65
2022-12-14T08:29:11.908Z,13.98
2022-12-14T08:31:39.700Z,15.00
2022-12-14T08:34:07.019Z,14.48
2022-12-14T08:36:35.119Z,15.48
2022-12-14T08:39:05.782Z,15.07
2022-12-14T08:41:33.271Z,13.35
2022-12-14T08:44:01.770Z,12.95
2022-12-14T08:46:30.917Z,13.73
2022-12-14T08:48:59.166Z,14.82
2022-12-14T08:51:27.933Z,14.55
2022-12-14T08:53:55.949Z,15.20
2022-12-14T08:56:25.831Z,14.50
2022-12-14T08:58:53.535Z,13.45
2022-12-14T09:01:32.166Z,13.73
2022-12-14T09:04:08.162Z,14.95
2022-12-14T09:06:39.068Z,14.13
2022-12-14T09:09:13.598Z,13.85
2022-12-14T09:11:43.478Z,13.38
2022-12-14T09:14:10.885Z,13.38
2022-12-14T09:16:38.419Z,14.23
2022-12-14T09:19:06.117Z,14.82
2022-12-14T09:21:34.020Z,13.88
2022-12-14T09:24:01.672Z,13.45
2022-12-14T09:26:29.904Z,15.02
2022-12-14T09:28:58.171Z,15.13
2022-12-14T09:31:27.105Z,16.77
2022-12-14T09:33:55.062Z,15.50
2022-12-14T09:36:25.391Z,15.73
2022-12-14T09:38:55.452Z,15.68
2022-12-14T09:44:01.813Z,13.60
2022-12-14T09:46:44.600Z,13.98
2022-12-14T09:49:31.726Z,14.02
2022-12-14T09:52:04.617Z,13.75
2022-12-14T09:54:35.576Z,14.10
2022-12-14T09:57:10.587Z,13.85
2022-12-14T09:59:38.255Z,14.07
2022-12-14T10:02:31.363Z,13.95
2022-12-14T10:05:36.574Z,14.20
2022-12-14T10:08:19.165Z,13.77
2022-12-14T10:11:31.565Z,14.20
2022-12-14T10:14:20.104Z,13.75
2022-12-14T10:17:17.864Z,14.50
2022-12-14T10:19:55.207Z,13.45
2022-12-14T10:22:33.663Z,13.98
2022-12-14T10:25:06.947Z,12.70
2022-12-14T10:28:01.214Z,13.23
2022-12-14T10:30:23.017Z,13.07
2022-12-14T10:33:14.795Z,13.27
2022-12-14T10:35:42.135Z,11.80
2022-12-14T10:38:25.610Z,12.65
2022-12-14T10:40:55.113Z,11.77
2022-12-14T10:43:31.530Z,12.27
2022-12-14T10:46:13.490Z,11.20
2022-12-14T10:48:53.248Z,11.73
2022-12-14T10:51:51.688Z,13.37
2022-12-14T10:54:28.751Z,11.90
2022-12-14T10:56:56.234Z,13.43
2022-12-14T10:59:31.157Z,13.52
2022-12-14T11:02:17.267Z,12.45
2022-12-14T11:04:54.683Z,13.35
2022-12-14T11:07:26.628Z,11.60
2022-12-14T11:09:54.108Z,11.80
2022-12-14T11:12:26.750Z,12.70
2022-12-14T11:15:00.171Z,12.95
2022-12-14T11:17:39.939Z,12.25
2022-12-14T11:20:17.505Z,12.23
2022-12-14T11:22:56.551Z,10.50
2022-12-14T11:25:36.588Z,11.02
2022-12-14T11:28:25.753Z,10.80
2022-12-14T11:31:03.301Z,11.85
2022-12-14T11:33:36.713Z,11.65
2022-12-14T11:36:04.258Z,11.25
2022-12-14T11:38:32.825Z,10.68
2022-12-14T11:41:07.224Z,10.10
2022-12-14T11:43:39.006Z,10.60
2022-12-14T11:46:06.941Z,9.95
2022-12-14T11:48:38.486Z,11.10
2022-12-14T11:51:11.285Z,10.05
2022-12-14T11:53:38.868Z,11.18
2022-12-14T11:56:10.903Z,10.95
2022-12-14T11:58:39.578Z,10.38
2022-12-14T12:01:13.649Z,10.60
2022-12-14T12:03:50.395Z,11.90
2022-12-14T12:06:24.757Z,11.05
2022-12-14T12:09:30.393Z,10.93
2022-12-14T12:11:57.880Z,10.50
2022-12-14T12:14:39.343Z,11.32
2022-12-14T12:17:40.363Z,12.20
2022-12-14T12:20:44.211Z,11.20
2022-12-14T12:23:25.065Z,10.38
2022-12-14T12:25:53.857Z,11.25
2022-12-14T12:28:28.625Z,9.77
2022-12-14T12:31:07.478Z,11.50
2022-12-14T12:33:47.439Z,11.43
2022-12-14T12:36:22.009Z,10.43
2022-12-14T12:38:54.143Z,11.27
2022-12-14T12:43:57.721Z,9.48
2022-12-14T12:46:29.926Z,10.35
2022-12-14T12:49:05.822Z,10.45
2022-12-14T12:51:42.021Z,11.48
2022-12-14T12:54:46.358Z,10.77
2022-12-14T13:00:46.422Z,10.35
2022-12-14T13:03:46.252Z,10.88
2022-12-14T13:06:41.413Z,11.23
2022-12-14T13:09:49.776Z,12.02
2022-12-14T13:15:50.465Z,12.30
2022-12-14T13:18:57.659Z,10.45
2022-12-14T13:21:44.312Z,12.80
2022-12-14T13:27:31.030Z,14.75
2022-12-14T13:30:01.288Z,14.68
2022-12-14T13:32:38.090Z,15.50
2022-12-14T13:35:45.085Z,18.88
2022-12-14T13:38:43.790Z,19.33
2022-12-14T13:42:13.026Z,13.65
2022-12-14T13:45:35.878Z,12.90
2022-12-14T13:48:19.972Z,11.95
2022-12-14T13:51:15.871Z,11.93
2022-12-14T13:54:39.240Z,11.25
2022-12-14T14:01:08.383Z,11.45
2022-12-14T14:07:27.182Z,22.95
2022-12-14T14:09:58.424Z,26.98
2022-12-14T14:12:31.962Z,14.82
2022-12-14T14:15:07.857Z,11.48
2022-12-14T14:17:46.043Z,12.50
2022-12-14T14:20:35.433Z,13.65
2022-12-14T14:23:14.696Z,12.57
2022-12-14T14:25:52.873Z,12.75
2022-12-14T14:28:23.268Z,12.82
2022-12-14T14:30:56.950Z,13.77
2022-12-14T14:33:45.320Z,13.07
2022-12-14T14:36:15.096Z,12.95
2022-12-14T14:38:42.569Z,13.20
2022-12-14T14:41:16.916Z,12.27
2022-12-14T14:43:54.169Z,12.80
2022-12-14T14:46:31.657Z,14.05
2022-12-14T14:48:59.287Z,13.20
2022-12-14T14:51:28.678Z,13.88
2022-12-14T14:57:33.872Z,12.88
2022-12-14T15:00:02.909Z,12.88
2022-12-14T15:02:33.219Z,13.63
2022-12-14T15:07:48.639Z,13.13
2022-12-14T15:10:28.407Z,12.00
2022-12-14T15:13:01.582Z,12.95
2022-12-14T15:15:31.969Z,12.80
2022-12-14T15:18:28.110Z,13.18
2022-12-14T15:21:01.175Z,13.27
2022-12-14T15:23:39.011Z,11.75
2022-12-14T15:26:18.833Z,12.20
2022-12-14T15:28:51.264Z,12.00
2022-12-14T15:31:27.559Z,13.32
2022-12-14T15:33:55.234Z,13.05
2022-12-14T15:36:28.328Z,13.73
2022-12-14T15:38:57.212Z,13.40
2022-12-14T15:41:27.784Z,12.27
2022-12-14T15:43:59.760Z,12.65
2022-12-14T15:46:35.543Z,14.52
2022-12-14T15:49:08.350Z,15.02
2022-12-14T15:51:40.655Z,16.48
2022-12-14T15:54:23.271Z,22.08
2022-12-14T15:56:58.916Z,22.58
2022-12-14T15:59:36.449Z,21.63
2022-12-14T16:02:09.157Z,19.42
2022-12-14T16:04:36.920Z,19.42
2022-12-14T16:07:18.033Z,19.42
2022-12-14T16:09:50.492Z,20.40
2022-12-14T16:12:45.218Z,17.58
2022-12-14T16:15:32.836Z,22.52
2022-12-14T16:18:03.264Z,26.95
2022-12-14T16:20:44.327Z,25.45
2022-12-14T16:23:14.560Z,20.45
2022-12-14T16:26:00.237Z,19.25
2022-12-14T16:28:36.870Z,17.30
2022-12-14T16:31:08.565Z,14.25
2022-12-14T16:33:38.071Z,14.95
2022-12-14T16:36:13.375Z,16.55
2022-12-14T16:39:05.735Z,16.10
2022-12-14T16:41:37.152Z,15.20
2022-12-14T16:44:07.969Z,13.35
2022-12-14T16:46:35.208Z,16.02
2022-12-14T16:49:27.738Z,15.10
2022-12-14T16:52:07.659Z,15.00
2022-12-14T16:54:36.910Z,14.63
2022-12-14T16:57:20.819Z,15.95
2022-12-14T16:59:57.042Z,15.52
2022-12-14T17:02:35.963Z,16.38
2022-12-14T17:05:11.927Z,18.27
2022-12-14T17:07:39.140Z,18.33
2022-12-14T17:10:15.892Z,17.88
2022-12-14T17:12:44.397Z,16.75
2022-12-14T17:15:16.169Z,18.33
2022-12-14T17:17:43.725Z,17.67
2022-12-14T17:20:20.957Z,16.98
2022-12-14T17:22:49.694Z,17.67
2022-12-14T17:25:17.512Z,16.02
2022-12-14T17:27:44.822Z,18.60
2022-12-14T17:30:17.412Z,17.73
2022-12-14T17:32:45.334Z,16.10
2022-12-14T17:35:21.528Z,16.52
2022-12-14T17:37:49.487Z,18.83
2022-12-14T17:40:16.910Z,22.92
2022-12-14T17:42:51.789Z,23.05
2022-12-14T17:45:25.185Z,24.25
2022-12-14T17:47:52.861Z,26.27
2022-12-14T17:50:20.158Z,22.38
2022-12-14T17:52:48.529Z,19.95
2022-12-14T17:55:21.476Z,16.95
2022-12-14T17:57:49.884Z,14.80
2022-12-14T18:00:41.183Z,14.02
2022-12-14T18:03:10.356Z,13.60
2022-12-14T18:05:42.163Z,14.63
2022-12-14T18:08:12.361Z,13.52
2022-12-14T18:10:39.526Z,12.18
2022-12-14T18:13:06.829Z,15.10
2022-12-14T18:15:43.776Z,13.80
2022-12-14T18:18:17.243Z,20.42
2022-12-14T18:20:49.399Z,18.27
2022-12-14T18:23:17.980Z,18.05
2022-12-14T18:25:50.849Z,15.57
2022-12-14T18:28:17.825Z,14.98
2022-12-14T18:30:49.804Z,15.60
2022-12-14T18:33:19.372Z,17.58
2022-12-14T18:35:47.780Z,19.60
2022-12-14T18:38:15.525Z,19.27
2022-12-14T18:40:46.088Z,18.52
2022-12-14T18:43:20.100Z,20.95
2022-12-14T18:45:47.550Z,19.98
2022-12-14T18:48:15.331Z,18.88
2022-12-14T18:50:43.114Z,21.77
2022-12-14T18:53:14.981Z,21.58
2022-12-14T18:55:43.035Z,21.40
2022-12-14T18:58:19.715Z,22.45
2022-12-14T19:00:47.622Z,20.83
2022-12-14T19:03:15.286Z,20.20
2022-12-14T19:05:42.551Z,23.42
2022-12-14T19:08:10.518Z,23.60
2022-12-14T19:10:45.863Z,21.75
2022-12-14T19:13:25.046Z,20.48
2022-12-14T19:15:53.108Z,19.63
2022-12-14T19:18:20.548Z,20.48
2022-12-14T19:20:49.550Z,20.27
2022-12-14T19:23:18.864Z,19.55
2022-12-14T19:25:46.631Z,19.70
2022-12-14T19:31:02.093Z,19.50
2022-12-14T19:33:30.015Z,19.95
2022-12-14T19:35:57.320Z,20.30
2022-12-14T19:38:24.258Z,19.45
2022-12-14T19:41:06.966Z,21.00
2022-12-14T19:43:35.276Z,21.50
2022-12-14T19:46:10.326Z,24.10
2022-12-14T19:48:38.198Z,26.13
2022-12-14T19:51:13.524Z,23.77
2022-12-14T19:53:42.679Z,25.15
2022-12-14T19:56:10.195Z,23.50
2022-12-14T19:58:37.516Z,26.50
2022-12-14T20:01:09.391Z,21.25
2022-12-14T20:03:37.607Z,18.00
2022-12-14T20:06:07.222Z,19.27
2022-12-14T20:08:35.381Z,17.50
2022-12-14T20:11:07.131Z,17.75
2022-12-14T20:13:34.792Z,18.10
2022-12-14T20:16:02.436Z,15.75
2022-12-14T20:18:30.959Z,13.38
2022-12-14T20:21:06.952Z,13.65
2022-12-14T20:23:36.010Z,13.35
2022-12-14T20:26:06.868Z,13.50
2022-12-14T20:28:34.360Z,13.25
2022-12-14T20:31:04.605Z,12.10
2022-12-14T20:33:31.750Z,13.75
2022-12-14T20:35:59.093Z,13.13
2022-12-14T20:38:26.729Z,13.40
2022-12-14T20:40:53.732Z,13.40
2022-12-14T20:43:21.198Z,12.18
2022-12-14T20:45:48.106Z,13.40
2022-12-14T20:48:15.385Z,13.25
2022-12-14T20:50:43.975Z,12.25
2022-12-14T20:53:17.755Z,12.80
2022-12-14T20:55:44.730Z,13.27
2022-12-14T20:58:12.054Z,13.07
2022-12-14T21:00:39.072Z,13.75
2022-12-14T21:03:06.630Z,12.85
2022-12-14T21:05:33.653Z,11.80
2022-12-14T21:08:00.527Z,14.57
2022-12-14T21:10:27.404Z,13.90
2022-12-14T21:12:54.684Z,14.13
2022-12-14T21:15:21.610Z,13.18
2022-12-14T21:17:48.585Z,14.32
2022-12-14T21:20:15.661Z,14.73
2022-12-14T21:22:42.639Z,12.73
2022-12-14T21:25:09.627Z,13.43
2022-12-14T21:27:38.725Z,14.13
2022-12-14T21:30:10.925Z,16.73
2022-12-14T21:32:38.714Z,16.73
2022-12-14T21:35:06.563Z,16.48
2022-12-14T21:37:33.699Z,16.55
2022-12-14T21:40:03.322Z,15.38
2022-12-14T21:42:30.200Z,13.65
2022-12-14T21:44:57.755Z,13.07
2022-12-14T21:47:27.784Z,12.52
2022-12-14T21:49:56.328Z,11.98
2022-12-14T21:52:25.955Z,11.70
2022-12-14T21:54:53.248Z,11.52
2022-12-14T21:57:41.991Z,11.43
2022-12-14T22:00:10.415Z,11.05
2022-12-14T22:02:41.821Z,10.90
2022-12-14T22:05:10.276Z,12.40
2022-12-14T22:07:37.700Z,15.20
2022-12-14T22:10:05.392Z,13.68
2022-12-14T22:12:32.745Z,14.77
2022-12-14T22:14:59.700Z,14.05
2022-12-14T22:17:26.680Z,12.68
2022-12-14T22:19:55.130Z,13.05
2022-12-14T22:22:22.792Z,13.52
2022-12-14T22:24:51.185Z,13.52
2022-12-14T22:27:18.815Z,15.02
2022-12-14T22:29:45.678Z,13.52
2022-12-14T22:32:13.368Z,14.50
2022-12-14T22:34:40.785Z,13.45
2022-12-14T22:37:07.820Z,15.23
2022-12-14T22:39:34.687Z,14.45
2022-12-14T22:42:01.621Z,15.07
2022-12-14T22:44:29.186Z,13.80
2022-12-14T22:46:56.094Z,15.32
2022-12-14T22:49:23.444Z,14.68
2022-12-14T22:51:50.789Z,14.40
2022-12-14T22:54:27.895Z,14.63
2022-12-14T22:56:59.846Z,14.48
2022-12-14T22:59:38.062Z,16.40
2022-12-14T23:02:05.528Z,14.73
2022-12-14T23:04:33.048Z,16.05
2022-12-14T23:07:00.033Z,15.35
2022-12-14T23:09:45.979Z,13.68
2022-12-14T23:12:31.429Z,13.10
2022-12-14T23:15:17.327Z,13.50
2022-12-14T23:18:02.750Z,13.27
2022-12-14T23:20:48.721Z,12.63
2022-12-14T23:23:34.387Z,13.27
2022-12-14T23:26:21.761Z,12.50
2022-12-14T23:29:07.329Z,14.05
2022-12-14T23:31:52.722Z,13.95
2022-12-14T23:34:37.977Z,12.98
2022-12-14T23:37:23.774Z,13.43
2022-12-14T23:40:09.195Z,13.30
2022-12-14T23:42:54.708Z,14.30
2022-12-14T23:45:40.134Z,11.77
2022-12-14T23:48:26.682Z,13.20
2022-12-14T23:51:12.117Z,11.63
2022-12-14T23:53:57.895Z,13.90
2022-12-14T23:56:43.169Z,12.32
2022-12-14T23:59:32.348Z,13.27
